Time;durP1;ratioP1;P1;durP2;ratioP2;P2;SDS_P1;SDS_P2;PMS_P1;PMS_P2;Temp;Humidity;BMP_temperature;BMP_pressure;BME280_temperature;BME280_humidity;BME280_pressure;Samples;Min_cycle;Max_cycle;Signal;HPM_P1;HPM_P2
2023/12/26 00:01:11;;;;;;;5.65;0.60;;;;;;;7.66;76.47;99218.28;5002548;28;20053;-53
2023/12/26 00:03:38;;;;;;;1.85;0.40;;;;;;;7.59;76.25;99222.59;5004907;28;20074;-52
2023/12/26 00:06:06;;;;;;;3.60;0.50;;;;;;;7.59;76.54;99219.16;4997090;28;20050;-47
2023/12/26 00:08:33;;;;;;;5.25;1.17;;;;;;;7.57;75.23;99221.75;5003121;28;20271;-48
2023/12/26 00:11:00;;;;;;;1.15;1.10;;;;;;;7.56;76.18;99237.22;4999151;28;20452;-48
2023/12/26 00:13:27;;;;;;;2.75;0.60;;;;;;;7.55;74.99;99227.78;5004554;28;20050;-44
2023/12/26 00:15:54;;;;;;;3.38;0.70;;;;;;;7.50;75.12;99237.25;4991864;28;20050;-49
2023/12/26 00:18:21;;;;;;;0.82;0.60;;;;;;;7.45;75.04;99245.84;5000559;28;20062;-50
2023/12/26 00:20:48;;;;;;;5.50;0.50;;;;;;;7.46;75.86;99251.84;5000433;28;20053;-51
2023/12/26 00:23:15;;;;;;;0.80;0.35;;;;;;;7.44;75.25;99243.28;5001589;28;20038;-52
2023/12/26 00:25:44;;;;;;;3.13;0.95;;;;;;;7.43;75.60;99242.41;5004705;28;20053;-50
2023/12/26 00:28:13;;;;;;;4.63;0.55;;;;;;;7.37;74.61;99242.44;4999787;28;20128;-48
2023/12/26 00:30:40;;;;;;;3.83;0.63;;;;;;;7.36;74.07;99242.44;5004241;28;20050;-52
2023/12/26 00:33:07;;;;;;;2.67;0.73;;;;;;;7.39;75.64;99243.28;5004040;28;20038;-50
2023/12/26 00:35:34;;;;;;;2.55;0.32;;;;;;;7.33;74.75;99240.75;4994943;28;20073;-50
2023/12/26 00:38:01;;;;;;;1.60;0.50;;;;;;;7.31;74.13;99250.16;5004513;28;20038;-47
2023/12/26 00:40:28;;;;;;;1.60;0.30;;;;;;;7.29;74.60;99241.56;4992489;28;20046;-49
2023/12/26 00:42:54;;;;;;;3.00;0.80;;;;;;;7.29;75.09;99241.56;5003596;28;20060;-52
2023/12/26 00:45:22;;;;;;;1.45;0.52;;;;;;;7.18;75.47;99232.19;4999302;28;20141;-51
2023/12/26 00:47:49;;;;;;;2.53;0.45;;;;;;;7.23;75.56;99236.47;5002043;28;20100;-47
2023/12/26 00:50:17;;;;;;;3.47;0.55;;;;;;;7.16;74.80;99228.72;5004044;28;20142;-49
2023/12/26 00:52:46;;;;;;;2.45;0.60;;;;;;;7.11;74.79;99229.59;5002759;28;20069;-45
2023/12/26 00:55:12;;;;;;;7.97;0.95;;;;;;;7.15;75.71;99239.03;4996004;28;20075;-49
2023/12/26 00:57:40;;;;;;;1.83;0.52;;;;;;;7.11;75.29;99250.19;5009495;28;20050;-51
2023/12/26 01:00:07;;;;;;;1.35;0.50;;;;;;;7.11;74.59;99251.06;5005675;28;20046;-49
2023/12/26 01:02:34;;;;;;;6.97;0.60;;;;;;;7.07;75.54;99259.66;5006879;28;20056;-50
2023/12/26 01:05:01;;;;;;;3.08;0.57;;;;;;;7.11;74.42;99250.19;5000857;28;20054;-47
2023/12/26 01:07:28;;;;;;;1.42;0.50;;;;;;;7.12;74.33;99255.34;4997832;28;20073;-49
2023/12/26 01:09:56;;;;;;;2.70;0.40;;;;;;;7.08;75.05;99256.22;5002359;28;20503;-48
2023/12/26 01:12:24;;;;;;;4.15;1.05;;;;;;;7.05;74.77;99261.38;5007178;28;20054;-49
2023/12/26 01:14:53;;;;;;;3.80;0.70;;;;;;;7.06;76.10;99257.94;5010483;28;20530;-47
2023/12/26 01:17:21;;;;;;;1.95;1.13;;;;;;;6.97;75.56;99268.25;5005113;28;20054;-46
2023/12/26 01:19:47;;;;;;;2.25;0.50;;;;;;;7.03;74.82;99270.81;5003956;28;20451;-47
2023/12/26 01:22:14;;;;;;;3.55;0.85;;;;;;;6.99;74.77;99271.69;5008940;28;20045;-51
2023/12/26 01:24:43;;;;;;;1.52;0.65;;;;;;;6.93;75.38;99282.84;5001860;28;20058;-48
2023/12/26 01:27:12;;;;;;;3.67;0.63;;;;;;;6.94;75.65;99290.56;5003370;28;20471;-48
2023/12/26 01:29:40;;;;;;;1.13;0.63;;;;;;;6.97;75.34;99288.84;4996759;28;20066;-45
2023/12/26 01:32:07;;;;;;;1.20;1.10;;;;;;;6.93;75.14;99293.97;5002231;28;20046;-48
2023/12/26 01:34:34;;;;;;;3.35;0.93;;;;;;;6.91;75.03;99292.28;5001261;28;20058;-48
2023/12/26 01:37:02;;;;;;;4.22;0.52;;;;;;;6.92;75.60;99299.13;5007735;28;20053;-47
2023/12/26 01:39:29;;;;;;;5.15;1.08;;;;;;;6.91;74.68;99295.72;5004895;28;20050;-50
2023/12/26 01:41:56;;;;;;;2.10;0.68;;;;;;;6.85;75.41;99294.88;5006884;28;20120;-47
2023/12/26 01:44:22;;;;;;;5.85;1.17;;;;;;;6.82;74.72;99290.53;5004367;28;20045;-46
2023/12/26 01:46:49;;;;;;;4.30;1.17;;;;;;;6.79;74.37;99293.16;4995562;28;20104;-47
2023/12/26 01:49:16;;;;;;;2.55;0.77;;;;;;;6.74;75.02;99298.28;4998067;28;20057;-46
2023/12/26 01:51:45;;;;;;;2.58;0.55;;;;;;;6.76;74.91;99296.53;4998332;28;20077;-44
2023/12/26 01:54:12;;;;;;;1.88;0.45;;;;;;;6.68;75.36;99304.28;5000846;28;20042;-44
2023/12/26 01:56:41;;;;;;;1.33;0.32;;;;;;;6.68;74.13;99305.97;4997445;28;20129;-49
2023/12/26 01:59:09;;;;;;;7.32;0.93;;;;;;;6.72;74.87;99312.00;4997876;28;20069;-48
2023/12/26 02:01:36;;;;;;;3.70;1.08;;;;;;;6.70;74.60;99309.44;5002262;28;20045;-49
2023/12/26 02:04:03;;;;;;;4.00;0.93;;;;;;;6.67;74.66;99306.84;5001299;28;20065;-49
2023/12/26 02:06:31;;;;;;;1.17;0.40;;;;;;;6.65;74.67;99309.41;4995758;28;20652;-49
2023/12/26 02:08:58;;;;;;;5.03;0.52;;;;;;;6.61;75.85;99307.69;4995156;28;20046;-48
2023/12/26 02:11:26;;;;;;;3.38;0.60;;;;;;;6.58;74.26;99302.53;5007415;28;20053;-47
2023/12/26 02:13:53;;;;;;;3.80;0.55;;;;;;;6.58;75.58;99302.53;4996561;28;20416;-49
2023/12/26 02:16:25;;;;;;;3.15;0.57;;;;;;;6.53;75.10;99315.41;5001536;28;20056;-47
2023/12/26 02:18:55;;;;;;;3.25;0.77;;;;;;;6.52;75.82;99308.53;4987448;28;20050;-47
2023/12/26 02:21:22;;;;;;;6.15;0.52;;;;;;;6.53;73.95;99311.97;4995088;28;20046;-45
2023/12/26 02:23:54;;;;;;;2.45;1.33;;;;;;;6.54;74.82;99311.97;4995339;28;20061;-50
2023/12/26 02:26:25;;;;;;;6.43;0.57;;;;;;;6.52;74.06;99317.97;4996632;28;20454;-46
2023/12/26 02:28:53;;;;;;;4.10;0.90;;;;;;;6.47;74.40;99325.69;4994201;28;20046;-47
2023/12/26 02:31:22;;;;;;;3.97;0.88;;;;;;;6.49;75.38;99331.66;4992350;28;20058;-48
2023/12/26 02:33:50;;;;;;;5.93;0.70;;;;;;;6.41;74.61;99328.22;4993389;28;20112;-47
2023/12/26 02:36:17;;;;;;;4.07;1.30;;;;;;;6.49;74.32;99333.41;4999860;28;20447;-43
2023/12/26 02:38:44;;;;;;;5.78;0.77;;;;;;;6.48;74.38;99336.84;4998232;28;20148;-51
2023/12/26 02:41:11;;;;;;;1.67;0.88;;;;;;;6.48;74.58;99342.00;4992503;28;20069;-47
2023/12/26 02:43:37;;;;;;;1.40;0.75;;;;;;;6.46;75.68;99341.13;4995208;28;20425;-50
2023/12/26 02:46:04;;;;;;;7.43;0.93;;;;;;;6.49;74.35;99338.56;4993933;28;20058;-47
2023/12/26 02:48:31;;;;;;;5.45;1.35;;;;;;;6.48;74.90;99339.41;4997142;28;20042;-49
2023/12/26 02:50:58;;;;;;;4.90;1.02;;;;;;;6.46;74.44;99341.13;5004723;28;20973;-51
2023/12/26 02:53:26;;;;;;;5.45;1.00;;;;;;;6.51;74.58;99354.84;4998518;28;20096;-46
2023/12/26 02:55:52;;;;;;;9.02;0.50;;;;;;;6.47;74.43;99355.69;4995939;28;20053;-47
2023/12/26 02:58:20;;;;;;;7.45;0.60;;;;;;;6.46;74.52;99354.84;4999178;28;20053;-47
2023/12/26 03:00:47;;;;;;;7.90;0.77;;;;;;;6.43;74.14;99344.53;5002658;28;20060;-49
2023/12/26 03:03:15;;;;;;;1.58;0.60;;;;;;;6.37;73.81;99355.66;4997234;28;20205;-49
2023/12/26 03:05:42;;;;;;;11.00;1.15;;;;;;;6.40;75.49;99355.69;5012954;28;20472;-49
2023/12/26 03:08:09;;;;;;;6.50;1.23;;;;;;;6.43;74.13;99355.66;5011705;28;20408;-51
2023/12/26 03:10:36;;;;;;;4.10;0.63;;;;;;;6.46;75.89;99354.84;5004643;28;20037;-47
2023/12/26 03:13:03;;;;;;;3.63;0.82;;;;;;;6.51;75.45;99354.84;5006855;28;20042;-47
2023/12/26 03:15:29;;;;;;;7.70;1.02;;;;;;;6.52;75.68;99354.00;4999964;28;20054;-49
2023/12/26 03:17:56;;;;;;;3.15;0.70;;;;;;;6.58;75.59;99350.59;5005899;28;20058;-50
2023/12/26 03:20:24;;;;;;;5.93;1.17;;;;;;;6.59;74.47;99360.00;5003566;28;20046;-50
2023/12/26 03:22:51;;;;;;;6.35;0.90;;;;;;;6.59;74.48;99345.44;4999317;28;20065;-45
2023/12/26 03:25:19;;;;;;;3.72;1.02;;;;;;;6.56;74.67;99351.41;4996217;28;20069;-49
2023/12/26 03:27:45;;;;;;;4.30;1.05;;;;;;;6.57;74.34;99347.16;4992383;28;20054;-44
2023/12/26 03:30:12;;;;;;;7.03;0.90;;;;;;;6.54;75.08;99349.69;4994411;28;20050;-48
2023/12/26 03:32:39;;;;;;;3.67;1.13;;;;;;;6.55;75.17;99356.56;5000200;28;20046;-48
2023/12/26 03:35:06;;;;;;;3.92;0.75;;;;;;;6.49;75.10;99364.28;5001108;28;20073;-48
2023/12/26 03:37:33;;;;;;;5.60;0.88;;;;;;;6.57;74.27;99378.03;5004207;28;20056;-51
2023/12/26 03:39:59;;;;;;;5.13;0.70;;;;;;;6.59;75.47;99373.75;4995248;28;20510;-51
2023/12/26 03:42:26;;;;;;;10.63;1.17;;;;;;;6.56;74.07;99366.03;5002218;28;20046;-46
2023/12/26 03:44:53;;;;;;;3.85;0.63;;;;;;;6.60;73.61;99367.75;4998604;28;20053;-50
2023/12/26 03:47:19;;;;;;;3.88;1.05;;;;;;;6.49;74.00;99359.13;4999603;28;20077;-52
2023/12/26 03:49:47;;;;;;;2.88;0.70;;;;;;;6.58;73.88;99359.16;4999584;28;20053;-51
2023/12/26 03:52:14;;;;;;;2.67;0.43;;;;;;;6.54;73.30;99352.28;4999915;28;20049;-49
2023/12/26 03:54:41;;;;;;;2.97;0.88;;;;;;;6.59;74.13;99360.88;4999204;28;20464;-49
2023/12/26 03:57:08;;;;;;;3.20;0.60;;;;;;;6.62;74.26;99383.19;5000418;28;20065;-50
2023/12/26 03:59:35;;;;;;;5.18;0.73;;;;;;;6.63;74.13;99388.34;5006940;28;20064;-51
2023/12/26 04:02:02;;;;;;;3.33;0.43;;;;;;;6.61;74.65;99389.16;5006408;28;20067;-52
2023/12/26 04:04:29;;;;;;;5.55;0.90;;;;;;;6.61;74.53;99390.03;4999747;28;20050;-44
2023/12/26 04:06:56;;;;;;;7.88;0.80;;;;;;;6.58;73.28;99366.88;5006062;28;20046;-49
2023/12/26 04:09:23;;;;;;;5.18;0.68;;;;;;;6.61;74.76;99369.44;4998247;28;20081;-48
2023/12/26 04:11:50;;;;;;;6.25;1.02;;;;;;;6.55;73.99;99369.41;5009210;28;20128;-49
2023/12/26 04:14:16;;;;;;;3.00;0.57;;;;;;;6.50;75.11;99376.28;4992767;28;20043;-49
2023/12/26 04:16:44;;;;;;;6.07;0.68;;;;;;;6.55;75.04;99385.72;5011917;28;20648;-51
2023/12/26 04:19:11;;;;;;;2.33;0.52;;;;;;;6.57;74.83;99380.59;5008193;28;20720;-48
2023/12/26 04:21:38;;;;;;;0.63;0.40;;;;;;;6.53;74.32;99392.59;5003704;28;21939;-51
2023/12/26 04:24:05;;;;;;;3.90;1.23;;;;;;;6.48;74.14;99396.00;5005644;28;20510;-45
2023/12/26 04:26:31;;;;;;;3.78;0.63;;;;;;;6.49;75.31;99390.00;5004508;28;20048;-49
2023/12/26 04:28:59;;;;;;;7.35;0.80;;;;;;;6.53;75.29;99387.47;5000938;28;20065;-51
2023/12/26 04:31:26;;;;;;;3.42;0.60;;;;;;;6.59;73.92;99385.75;5012788;28;20058;-47
2023/12/26 04:33:53;;;;;;;7.13;0.60;;;;;;;6.56;75.32;99395.16;5004943;28;20046;-48
2023/12/26 04:36:20;;;;;;;3.22;0.25;;;;;;;6.55;74.15;99390.00;5001648;28;20762;-45
2023/12/26 04:38:47;;;;;;;4.45;0.77;;;;;;;6.55;74.16;99390.00;5001448;28;20057;-45
2023/12/26 04:41:14;;;;;;;10.18;0.85;;;;;;;6.54;75.37;99401.16;5004985;28;20100;-49
2023/12/26 04:43:42;;;;;;;2.80;0.88;;;;;;;6.56;74.06;99392.59;5001538;28;20466;-49
2023/12/26 04:46:17;;;;;;;3.17;0.65;;;;;;;6.55;73.98;99395.16;5000704;28;20046;-45
2023/12/26 04:48:45;;;;;;;2.30;0.65;;;;;;;6.52;74.86;99390.03;5008078;28;20082;-46
2023/12/26 04:51:16;;;;;;;1.80;0.50;;;;;;;6.47;75.16;99396.84;5011302;28;20142;-51
2023/12/26 04:53:46;;;;;;;5.55;0.80;;;;;;;6.52;74.76;99420.91;5005690;28;20537;-47
2023/12/26 04:56:17;;;;;;;3.22;0.52;;;;;;;6.53;75.32;99417.47;5002587;28;20041;-48
2023/12/26 04:58:46;;;;;;;6.53;0.82;;;;;;;6.51;74.21;99426.88;5005318;28;20080;-46
2023/12/26 05:01:13;;;;;;;2.17;0.60;;;;;;;6.53;74.69;99432.91;4999633;28;20045;-50
2023/12/26 05:03:42;;;;;;;5.00;1.02;;;;;;;6.49;74.62;99436.31;5008808;28;20128;-47
2023/12/26 05:06:09;;;;;;;6.10;0.95;;;;;;;6.51;75.75;99444.88;4997459;28;20108;-47
2023/12/26 05:08:40;;;;;;;6.32;0.45;;;;;;;6.52;74.72;99449.19;4993725;28;20419;-48
2023/12/26 05:11:07;;;;;;;1.95;0.93;;;;;;;6.49;75.29;99446.59;5000862;28;20049;-45
2023/12/26 05:13:33;;;;;;;2.67;0.45;;;;;;;6.47;75.29;99456.00;4997366;28;20065;-45
2023/12/26 05:16:04;;;;;;;4.13;0.88;;;;;;;6.47;75.92;99468.88;4999474;28;20520;-44
2023/12/26 05:18:31;;;;;;;7.63;1.25;;;;;;;6.47;75.74;99472.31;5001086;28;20045;-49
2023/12/26 05:20:59;;;;;;;4.78;1.10;;;;;;;6.46;75.16;99487.75;5001582;28;20142;-51
2023/12/26 05:23:26;;;;;;;2.70;0.63;;;;;;;6.47;74.58;99492.03;4997793;28;20050;-50
2023/12/26 05:25:52;;;;;;;5.93;1.08;;;;;;;6.51;75.51;99496.34;4995465;28;20065;-48
2023/12/26 05:28:30;;;;;;;2.80;0.60;;;;;;;6.43;75.85;99504.03;4998127;28;20077;-51
2023/12/26 05:30:56;;;;;;;5.07;0.57;;;;;;;6.41;76.02;99514.31;4995560;28;20042;-47
2023/12/26 05:33:23;;;;;;;5.57;0.70;;;;;;;6.42;76.17;99528.88;4997175;28;20132;-52
2023/12/26 05:35:50;;;;;;;4.13;0.60;;;;;;;6.42;74.95;99528.06;4997238;28;20912;-47
2023/12/26 05:38:16;;;;;;;3.90;0.90;;;;;;;6.45;75.91;99530.63;4995803;28;20115;-48
2023/12/26 05:40:43;;;;;;;6.35;0.50;;;;;;;6.41;74.62;99536.59;4995162;28;20076;-49
2023/12/26 05:43:10;;;;;;;2.03;0.70;;;;;;;6.38;75.48;99536.59;4995634;28;20061;-49
2023/12/26 05:45:36;;;;;;;4.50;0.82;;;;;;;6.41;75.06;99534.03;4997052;28;20480;-48
2023/12/26 05:48:06;;;;;;;5.80;1.25;;;;;;;6.38;75.63;99536.59;4995616;28;20057;-55
2023/12/26 05:50:33;;;;;;;5.28;0.90;;;;;;;6.39;75.69;99539.16;5002326;28;20265;-50
2023/12/26 05:53:02;;;;;;;1.00;0.50;;;;;;;6.35;75.89;99532.28;5002371;28;20062;-47
2023/12/26 05:55:28;;;;;;;3.33;0.70;;;;;;;6.35;75.86;99542.56;4991096;28;20054;-50
2023/12/26 05:57:55;;;;;;;3.40;0.77;;;;;;;6.36;76.20;99557.16;5002535;28;20058;-46
2023/12/26 06:00:22;;;;;;;2.63;0.63;;;;;;;6.33;74.65;99557.13;5002692;28;20057;-45
2023/12/26 06:02:49;;;;;;;3.13;1.05;;;;;;;6.34;76.29;99553.72;5001576;28;20057;-49
2023/12/26 06:05:16;;;;;;;10.05;0.93;;;;;;;6.30;74.78;99551.97;5007497;28;20059;-49
2023/12/26 06:07:42;;;;;;;7.75;1.17;;;;;;;6.27;75.25;99559.66;5002872;28;20575;-50
2023/12/26 06:10:09;;;;;;;7.70;0.77;;;;;;;6.26;75.02;99557.94;5000008;28;20068;-46
2023/12/26 06:12:39;;;;;;;4.40;0.77;;;;;;;6.23;75.00;99557.91;5003551;28;20487;-49
2023/12/26 06:15:07;;;;;;;0.52;0.40;;;;;;;6.21;74.92;99562.22;5001834;28;20056;-46
2023/12/26 06:17:36;;;;;;;3.45;0.88;;;;;;;6.21;75.85;99569.91;4998756;28;20073;-49
2023/12/26 06:20:06;;;;;;;5.18;0.95;;;;;;;6.14;75.03;99571.56;5007727;28;20120;-44
2023/12/26 06:22:33;;;;;;;5.57;0.70;;;;;;;6.18;75.54;99586.16;5000923;28;20116;-44
2023/12/26 06:25:00;;;;;;;5.32;0.50;;;;;;;6.11;75.98;99580.13;4996702;28;20049;-48
2023/12/26 06:27:26;;;;;;;3.08;0.80;;;;;;;6.15;75.71;99596.44;4993955;28;20092;-50
2023/12/26 06:29:53;;;;;;;4.13;0.73;;;;;;;6.07;75.62;99598.06;4994951;28;20062;-48
2023/12/26 06:32:19;;;;;;;3.90;1.15;;;;;;;6.08;75.83;99600.66;4996622;28;20464;-49
2023/12/26 06:34:46;;;;;;;4.55;0.68;;;;;;;6.10;74.87;99609.25;4992876;28;20050;-45
2023/12/26 06:37:14;;;;;;;5.53;0.50;;;;;;;6.09;76.33;99607.53;4997210;28;20046;-50
2023/12/26 06:39:42;;;;;;;8.00;0.70;;;;;;;6.06;74.97;99612.66;4998717;28;20065;-50
2023/12/26 06:42:11;;;;;;;4.40;1.02;;;;;;;6.02;75.80;99610.88;4990161;28;20046;-45
2023/12/26 06:44:38;;;;;;;3.95;0.82;;;;;;;6.00;76.52;99618.56;4993815;28;20042;-46
2023/12/26 06:47:04;;;;;;;3.72;0.80;;;;;;;6.00;75.99;99615.13;4996773;28;20053;-48
2023/12/26 06:49:31;;;;;;;4.25;1.00;;;;;;;6.02;76.41;99627.13;4995706;28;20058;-51
2023/12/26 06:51:59;;;;;;;7.28;0.95;;;;;;;5.99;76.82;99636.56;4992303;28;20132;-50
2023/12/26 06:54:27;;;;;;;3.60;0.88;;;;;;;5.98;75.64;99632.25;4996374;28;20046;-50
2023/12/26 06:56:53;;;;;;;3.72;0.85;;;;;;;5.95;76.37;99639.94;4996113;28;20057;-48
2023/12/26 06:59:20;;;;;;;6.82;0.50;;;;;;;5.95;76.07;99639.94;4992675;28;20116;-46
2023/12/26 07:01:48;;;;;;;8.18;1.35;;;;;;;5.95;75.13;99663.06;4993843;28;20536;-47
2023/12/26 07:04:15;;;;;;;5.47;1.65;;;;;;;5.95;75.97;99660.50;4995272;28;20050;-46
2023/12/26 07:06:43;;;;;;;2.58;0.70;;;;;;;5.95;75.49;99670.78;4999348;28;20046;-50
2023/12/26 07:09:09;;;;;;;6.15;0.88;;;;;;;5.95;75.49;99676.81;4992760;28;20050;-48
2023/12/26 07:11:36;;;;;;;1.65;0.80;;;;;;;5.94;76.05;99674.22;4993026;28;20054;-46
2023/12/26 07:14:04;;;;;;;3.00;0.85;;;;;;;5.94;75.51;99684.50;4992132;28;20042;-45
2023/12/26 07:16:33;;;;;;;5.18;0.82;;;;;;;5.91;76.54;99704.16;4997613;28;20046;-49
2023/12/26 07:18:59;;;;;;;4.15;0.57;;;;;;;5.93;76.63;99714.47;4992514;28;20057;-51
2023/12/26 07:21:26;;;;;;;7.28;0.52;;;;;;;5.90;75.78;99735.88;4996409;28;21532;-51
2023/12/26 07:23:53;;;;;;;4.57;0.90;;;;;;;5.92;76.38;99741.88;4994975;28;20519;-48
2023/12/26 07:26:22;;;;;;;4.15;0.82;;;;;;;5.91;75.40;99744.41;4995910;28;20046;-47
2023/12/26 07:28:50;;;;;;;4.30;0.70;;;;;;;5.88;75.85;99758.09;4994410;28;20388;-47
2023/12/26 07:31:19;;;;;;;3.53;0.60;;;;;;;5.87;75.42;99766.66;4993799;28;20557;-49
2023/12/26 07:33:47;;;;;;;2.17;0.60;;;;;;;5.87;75.78;99794.06;4991914;28;20050;-47
2023/12/26 07:36:15;;;;;;;3.45;0.60;;;;;;;5.91;74.94;99799.28;4994233;28;20068;-43
2023/12/26 07:38:43;;;;;;;5.43;0.73;;;;;;;5.94;76.52;99803.59;4997041;28;20801;-52
2023/12/26 07:41:10;;;;;;;5.68;1.58;;;;;;;5.98;75.21;99800.22;4993289;28;20053;-49
2023/12/26 07:43:37;;;;;;;22.48;6.22;;;;;;;6.03;76.67;99808.91;4993011;28;20077;-50
2023/12/26 07:46:06;;;;;;;17.58;7.35;;;;;;;6.08;76.59;99821.78;5021316;28;20061;-48
2023/12/26 07:48:33;;;;;;;17.02;4.10;;;;;;;6.07;76.84;99829.47;4995414;28;20499;-46
2023/12/26 07:50:59;;;;;;;6.90;1.95;;;;;;;6.12;76.78;99833.00;4998375;28;20462;-46
2023/12/26 07:53:27;;;;;;;5.22;1.48;;;;;;;6.15;75.98;99844.16;4998241;28;20038;-46
2023/12/26 07:55:53;;;;;;;5.70;1.73;;;;;;;6.17;76.13;99847.63;5006384;28;20112;-44
2023/12/26 07:58:20;;;;;;;56.05;15.57;;;;;;;6.20;76.27;99856.22;5003789;28;20054;-46
2023/12/26 08:00:48;;;;;;;24.73;8.65;;;;;;;6.23;76.77;99849.41;5000489;28;20045;-51
2023/12/26 08:03:15;;;;;;;9.05;2.22;;;;;;;6.25;75.33;99857.16;5002487;28;20621;-43
2023/12/26 08:05:42;;;;;;;4.35;1.40;;;;;;;6.26;76.07;99864.00;5008603;28;20055;-45
2023/12/26 08:08:11;;;;;;;5.95;1.27;;;;;;;6.28;74.91;99875.16;5008976;28;20042;-44
2023/12/26 08:10:42;;;;;;;5.10;1.40;;;;;;;6.30;76.55;99886.34;5004757;28;20076;-51
2023/12/26 08:13:09;;;;;;;7.22;1.52;;;;;;;6.31;75.55;99900.94;5001726;28;20061;-47
2023/12/26 08:15:36;;;;;;;5.53;1.10;;;;;;;6.32;75.14;99900.13;5005056;28;20054;-47
2023/12/26 08:18:04;;;;;;;12.75;0.88;;;;;;;6.29;76.05;99894.94;5003645;28;20045;-49
2023/12/26 08:20:33;;;;;;;6.25;1.17;;;;;;;6.36;75.94;99908.72;5000612;28;20052;-47
2023/12/26 08:23:00;;;;;;;6.65;0.98;;;;;;;6.38;75.74;99912.19;5010584;28;20046;-46
2023/12/26 08:25:27;;;;;;;14.13;4.00;;;;;;;6.40;75.20;99918.19;5009051;28;20050;-51
2023/12/26 08:27:55;;;;;;;16.02;4.00;;;;;;;6.43;76.50;99936.25;5004687;28;20046;-45
2023/12/26 08:30:22;;;;;;;18.75;5.75;;;;;;;6.45;76.57;99933.69;5003874;28;20106;-47
2023/12/26 08:32:49;;;;;;;25.30;6.82;;;;;;;6.46;76.70;99938.88;5003870;28;20049;-50
2023/12/26 08:35:16;;;;;;;24.30;7.25;;;;;;;6.46;75.45;99935.41;4999948;28;20041;-45
2023/12/26 08:37:42;;;;;;;15.32;6.38;;;;;;;6.43;75.72;99931.09;5006815;28;20141;-47
2023/12/26 08:40:09;;;;;;;29.30;6.93;;;;;;;6.48;76.41;99929.44;5006689;28;20061;-48
2023/12/26 08:42:37;;;;;;;14.05;3.00;;;;;;;6.53;76.22;99934.66;5006539;28;20050;-51
2023/12/26 08:45:04;;;;;;;34.08;9.98;;;;;;;6.62;75.09;99939.91;5003963;28;20064;-51
2023/12/26 08:47:31;;;;;;;20.83;5.88;;;;;;;6.65;76.16;99947.66;5000526;28;20046;-49
2023/12/26 08:49:59;;;;;;;51.42;13.63;;;;;;;6.72;76.45;99961.47;5001653;28;20081;-44
2023/12/26 08:52:26;;;;;;;23.77;6.65;;;;;;;6.75;75.33;99963.22;4994175;28;20077;-52
2023/12/26 08:54:52;;;;;;;22.65;5.75;;;;;;;6.88;74.99;99965.09;4991982;28;20046;-49
2023/12/26 08:57:19;;;;;;;13.30;5.15;;;;;;;7.15;75.96;99973.94;5002627;28;20053;-51
2023/12/26 08:59:47;;;;;;;43.53;12.85;;;;;;;7.64;75.88;99977.84;4997886;28;20041;-44
2023/12/26 09:02:15;;;;;;;20.58;6.70;;;;;;;8.19;74.76;99986.81;5001677;28;20057;-46
2023/12/26 09:04:41;;;;;;;16.02;5.85;;;;;;;8.70;73.90;99983.66;5005039;28;20408;-47
2023/12/26 09:07:08;;;;;;;6.43;2.53;;;;;;;9.05;72.64;99989.78;5005452;28;20069;-47
2023/12/26 09:09:35;;;;;;;3.60;0.68;;;;;;;9.36;72.80;100002.75;5007472;28;20507;-48
2023/12/26 09:12:04;;;;;;;5.28;1.50;;;;;;;9.72;72.37;99999.34;5007261;28;20354;-52
2023/12/26 09:14:31;;;;;;;4.72;2.20;;;;;;;9.99;71.35;100010.53;5008308;28;20042;-51
2023/12/26 09:16:57;;;;;;;5.50;1.27;;;;;;;10.03;71.41;100005.38;5005331;28;20046;-46
2023/12/26 09:19:24;;;;;;;12.88;1.52;;;;;;;10.26;71.68;100008.78;5007065;28;20049;-46
2023/12/26 09:21:51;;;;;;;6.63;0.90;;;;;;;10.88;71.34;100018.13;5005477;28;20581;-48
2023/12/26 09:24:18;;;;;;;4.63;0.57;;;;;;;11.33;70.36;100017.88;5003722;28;20046;-49
2023/12/26 09:26:45;;;;;;;5.47;1.40;;;;;;;11.61;68.95;100029.78;5004848;28;20141;-48
2023/12/26 09:29:12;;;;;;;7.25;0.88;;;;;;;11.86;67.96;100024.41;5000763;28;20046;-48
2023/12/26 09:31:38;;;;;;;2.67;0.63;;;;;;;12.24;68.21;100020.63;5001650;28;20050;-46
2023/12/26 09:34:05;;;;;;;6.45;1.50;;;;;;;12.63;67.88;100040.13;5005593;28;20049;-46
2023/12/26 09:36:32;;;;;;;4.32;1.00;;;;;;;13.14;66.70;100036.88;5006426;28;20060;-47
2023/12/26 09:38:59;;;;;;;7.95;1.45;;;;;;;13.76;66.72;100048.19;5005107;28;20057;-45
2023/12/26 09:41:26;;;;;;;7.07;0.80;;;;;;;14.27;65.38;100051.66;5004192;28;20045;-50
2023/12/26 09:43:53;;;;;;;7.00;0.77;;;;;;;14.72;64.25;100047.34;5005536;28;20050;-51
2023/12/26 09:46:20;;;;;;;2.15;0.65;;;;;;;15.08;63.02;100052.72;5006241;28;20058;-48
2023/12/26 09:48:47;;;;;;;5.57;0.98;;;;;;;15.38;62.54;100055.56;5006808;28;20050;-48
2023/12/26 09:51:20;;;;;;;2.15;0.85;;;;;;;15.70;61.25;100058.31;5007261;28;20162;-47
2023/12/26 09:53:57;;;;;;;4.57;0.85;;;;;;;15.84;58.72;100057.97;5007755;28;20054;-48
2023/12/26 09:56:26;;;;;;;3.47;0.73;;;;;;;16.00;59.06;100057.63;5000625;28;21294;-53
2023/12/26 09:58:55;;;;;;;2.53;0.75;;;;;;;16.17;57.84;100065.88;5000665;28;20502;-49
2023/12/26 10:01:22;;;;;;;3.95;0.52;;;;;;;16.33;57.86;100070.72;5003408;28;20054;-47
2023/12/26 10:03:49;;;;;;;2.60;0.38;;;;;;;16.63;57.59;100089.09;5003590;28;20459;-47
2023/12/26 10:06:18;;;;;;;1.05;0.40;;;;;;;16.99;56.77;100100.31;5001959;28;20046;-50
2023/12/26 10:08:45;;;;;;;4.72;0.82;;;;;;;17.44;56.86;100113.00;5003393;28;20074;-48
2023/12/26 10:11:13;;;;;;;5.95;1.25;;;;;;;17.93;56.55;100130.69;5001272;28;20107;-47
2023/12/26 10:13:44;;;;;;;3.42;0.80;;;;;;;18.23;55.08;100133.25;4999534;28;20053;-46
2023/12/26 10:16:11;;;;;;;7.25;0.75;;;;;;;18.40;54.69;100144.09;4998964;28;20072;-48
2023/12/26 10:18:39;;;;;;;2.85;0.73;;;;;;;18.69;53.87;100155.31;5004269;28;20081;-50
2023/12/26 10:21:07;;;;;;;4.30;1.33;;;;;;;18.89;53.07;100152.84;5004667;28;20057;-45
2023/12/26 10:23:34;;;;;;;3.47;0.82;;;;;;;19.09;52.56;100163.56;5008350;28;20129;-49
2023/12/26 10:26:02;;;;;;;5.00;1.05;;;;;;;19.35;52.40;100167.00;5005670;28;20471;-52
2023/12/26 10:28:29;;;;;;;4.70;1.17;;;;;;;19.56;51.50;100177.59;5005251;28;20049;-51
2023/12/26 10:30:56;;;;;;;37.05;12.77;;;;;;;19.58;50.73;100181.00;4994635;28;20050;-49
2023/12/26 10:33:28;;;;;;;13.50;3.75;;;;;;;19.55;50.06;100192.50;5003016;28;20045;-49
2023/12/26 10:36:05;;;;;;;9.38;1.55;;;;;;;19.21;48.94;100194.63;4996772;28;20058;-51
2023/12/26 10:38:32;;;;;;;4.15;1.10;;;;;;;18.81;49.77;100196.03;5002476;28;20132;-49
2023/12/26 10:41:05;;;;;;;8.40;3.28;;;;;;;18.11;49.90;100199.19;5002014;28;20144;-46
2023/12/26 10:43:32;;;;;;;3.00;0.88;;;;;;;17.33;50.52;100204.09;4998295;28;20057;-52
2023/12/26 10:46:02;;;;;;;5.97;1.05;;;;;;;16.63;51.69;100204.16;5005215;28;20079;-52
2023/12/26 10:48:33;;;;;;;3.63;0.52;;;;;;;16.03;51.85;100198.59;5001987;28;20049;-47
2023/12/26 10:51:00;;;;;;;4.60;0.57;;;;;;;15.42;52.75;100200.75;5004815;28;20049;-52
2023/12/26 10:53:49;;;;;;;3.53;1.02;;;;;;;14.77;52.89;100204.59;5005654;28;20050;-49
2023/12/26 10:56:17;;;;;;;3.72;1.08;;;;;;;14.47;54.47;100214.59;4994044;28;20442;-52
2023/12/26 10:58:44;;;;;;;7.00;2.58;;;;;;;14.12;55.09;100215.13;4996897;28;20058;-48
2023/12/26 11:01:12;;;;;;;4.72;1.30;;;;;;;13.84;55.59;100223.34;5002584;28;20050;-50
2023/12/26 13:52:36;;;;;;;23.13;6.55;;;;;;;9.25;65.32;100296.50;5002515;28;20050;-52
2023/12/26 13:55:03;;;;;;;8.77;3.55;;;;;;;9.22;65.44;100302.53;5000491;28;20046;-53
2023/12/26 13:57:32;;;;;;;8.82;1.77;;;;;;;9.20;65.83;100299.09;4998353;28;20057;-53
2023/12/26 14:00:00;;;;;;;4.22;0.77;;;;;;;9.15;65.71;100297.31;4994653;28;20060;-48
2023/12/26 14:02:27;;;;;;;5.80;1.20;;;;;;;9.10;65.65;100298.16;4998836;28;20534;-47
2023/12/26 14:04:53;;;;;;;4.68;1.60;;;;;;;9.07;65.96;100299.84;5000751;28;20061;-48
2023/12/26 14:07:21;;;;;;;6.43;1.45;;;;;;;9.03;65.77;100295.50;4996187;28;20526;-50
2023/12/26 14:09:48;;;;;;;30.83;8.65;;;;;;;9.00;66.29;100306.69;4995727;28;20046;-58
2023/12/26 14:12:15;;;;;;;27.60;7.10;;;;;;;8.99;66.24;100310.13;4997337;28;20050;-48
2023/12/26 14:14:42;;;;;;;15.15;4.75;;;;;;;8.96;66.21;100303.22;5000924;28;20056;-51
2023/12/26 14:17:08;;;;;;;5.13;2.38;;;;;;;8.96;66.16;100308.41;5004862;28;20053;-46
2023/12/26 14:19:35;;;;;;;14.95;3.58;;;;;;;8.94;66.16;100307.50;5001792;28;20418;-51
2023/12/26 14:22:02;;;;;;;9.23;2.70;;;;;;;8.93;66.09;100313.53;5003272;28;20053;-51
2023/12/26 14:24:30;;;;;;;28.17;7.72;;;;;;;8.91;66.33;100317.81;4996360;28;20045;-54
2023/12/26 14:26:57;;;;;;;26.63;7.28;;;;;;;8.87;66.25;100318.63;5004379;28;20520;-51